Time;durP1;ratioP1;P1;durP2;ratioP2;P2;SDS_P1;SDS_P2;PMS_P1;PMS_P2;Temp;Humidity;BMP_temperature;BMP_pressure;BME280_temperature;BME280_humidity;BME280_pressure;Samples;Min_cycle;Max_cycle;Signal;HPM_P1;HPM_P2
2021/03/14 00:00:23;;;;;;;;;;;9.90;90.90;;;;;;5074107;28;19933;-72
2021/03/14 00:02:49;;;;;;;;;;;9.90;91.20;;;;;;5073952;28;19924;-71
2021/03/14 00:05:16;;;;;;;;;;;9.90;90.70;;;;;;5089630;28;19939;-72
2021/03/14 00:07:43;;;;;;;;;;;9.80;90.60;;;;;;5093848;28;19932;-72
2021/03/14 00:10:11;;;;;;;;;;;9.90;91.00;;;;;;5094173;28;19924;-72
2021/03/14 00:12:37;;;;;;;;;;;10.00;90.50;;;;;;5093610;28;19932;-72
2021/03/14 00:15:04;;;;;;;;;;;10.00;90.10;;;;;;5094581;28;19930;-72
2021/03/14 00:17:30;;;;;;;;;;;10.00;90.30;;;;;;5093884;28;20265;-72
2021/03/14 00:19:56;;;;;;;;;;;10.00;89.90;;;;;;5094129;28;20020;-72
2021/03/14 00:22:23;;;;;;;;;;;10.00;89.90;;;;;;5093260;28;19934;-72
2021/03/14 00:24:50;;;;;;;;;;;9.90;90.40;;;;;;5078951;28;19925;-72
2021/03/14 00:27:16;;;;;;;;;;;9.90;90.50;;;;;;5073901;28;19929;-72
2021/03/14 00:29:42;;;;;;;;;;;9.90;90.40;;;;;;5073347;28;20362;-72
2021/03/14 00:32:08;;;;;;;;;;;10.00;90.00;;;;;;5073657;28;20365;-72
2021/03/14 00:34:35;;;;;;;;;;;10.00;89.40;;;;;;5072985;28;19934;-72
2021/03/14 00:37:01;;;;;;;;;;;10.00;89.20;;;;;;5073430;28;19985;-72
2021/03/14 00:39:28;;;;;;;;;;;10.10;89.10;;;;;;5073199;28;19924;-72
2021/03/14 00:41:54;;;;;;;;;;;10.10;88.60;;;;;;5073481;28;20015;-72
2021/03/14 00:44:20;;;;;;;;;;;10.10;89.20;;;;;;5073488;28;20443;-72
2021/03/14 00:46:47;;;;;;;;;;;10.10;88.50;;;;;;5072975;28;19929;-72
2021/03/14 00:49:16;;;;;;;;;;;10.10;88.70;;;;;;5073363;28;19950;-72
2021/03/14 00:51:45;;;;;;;;;;;10.20;88.90;;;;;;5072256;28;20359;-72
2021/03/14 00:54:11;;;;;;;;;;;10.10;88.10;;;;;;5057507;28;19925;-72
2021/03/14 00:56:38;;;;;;;;;;;10.10;87.70;;;;;;5070700;28;19939;-72
2021/03/14 00:59:04;;;;;;;;;;;10.20;88.00;;;;;;5072951;28;19924;-72
2021/03/14 01:01:31;;;;;;;;;;;10.20;87.40;;;;;;5059097;28;19989;-72
2021/03/14 01:03:57;;;;;;;;;;;10.20;87.40;;;;;;5072295;28;19924;-72
2021/03/14 01:06:23;;;;;;;;;;;10.10;87.10;;;;;;5072790;28;20367;-72
2021/03/14 01:08:50;;;;;;;;;;;10.20;86.70;;;;;;5072432;28;19956;-72
2021/03/14 01:11:16;;;;;;;;;;;10.20;87.70;;;;;;5072829;28;19925;-72
2021/03/14 01:13:43;;;;;;;;;;;10.10;87.40;;;;;;5072626;28;19928;-72
2021/03/14 01:16:09;;;;;;;;;;;10.10;86.30;;;;;;5063641;28;19925;-72
2021/03/14 01:18:36;;;;;;;;;;;10.10;87.30;;;;;;5072142;28;20023;-72
2021/03/14 01:21:02;;;;;;;;;;;10.00;87.70;;;;;;5072918;28;19925;-72
2021/03/14 01:23:28;;;;;;;;;;;10.10;87.70;;;;;;5072799;28;19954;-72
2021/03/14 01:25:55;;;;;;;;;;;10.10;88.60;;;;;;5072065;28;19935;-72
2021/03/14 01:28:21;;;;;;;;;;;10.00;88.60;;;;;;5072986;28;19924;-72
2021/03/14 01:30:52;;;;;;;;;;;10.10;89.00;;;;;;5072275;28;19925;-72
2021/03/14 01:33:18;;;;;;;;;;;10.10;88.60;;;;;;5072731;28;19924;-71
2021/03/14 01:35:44;;;;;;;;;;;10.10;88.70;;;;;;5072159;28;19925;-72
2021/03/14 01:38:10;;;;;;;;;;;10.10;88.60;;;;;;5072504;28;19925;-73
2021/03/14 01:40:37;;;;;;;;;;;10.20;88.80;;;;;;5072088;28;19924;-74
2021/03/14 01:43:03;;;;;;;;;;;10.20;88.20;;;;;;5072473;28;20216;-74
2021/03/14 01:45:29;;;;;;;;;;;10.10;87.50;;;;;;5072515;28;19938;-74
2021/03/14 01:47:58;;;;;;;;;;;10.10;87.30;;;;;;5071997;28;19925;-73
2021/03/14 01:50:26;;;;;;;;;;;10.00;87.20;;;;;;5072274;28;20616;-73
2021/03/14 01:52:53;;;;;;;;;;;10.00;87.80;;;;;;5061451;28;20060;-73
2021/03/14 01:55:20;;;;;;;;;;;9.90;89.10;;;;;;5060119;28;20007;-73
2021/03/14 01:57:47;;;;;;;;;;;9.80;88.30;;;;;;5072079;28;19925;-73
2021/03/14 02:00:14;;;;;;;;;;;9.80;89.30;;;;;;5070357;28;19932;-72
2021/03/14 02:02:40;;;;;;;;;;;9.70;89.30;;;;;;5065434;28;19935;-73
2021/03/14 02:05:09;;;;;;;;;;;9.70;88.80;;;;;;5066569;28;19925;-73
2021/03/14 02:07:37;;;;;;;;;;;9.70;89.30;;;;;;5071623;28;19936;-73
2021/03/14 02:10:04;;;;;;;;;;;9.70;89.10;;;;;;5072294;28;19973;-73
2021/03/14 02:12:34;;;;;;;;;;;9.60;88.60;;;;;;5072459;28;19985;-73
2021/03/14 02:15:01;;;;;;;;;;;9.60;89.20;;;;;;5077869;28;19925;-74
2021/03/14 02:17:30;;;;;;;;;;;9.70;90.00;;;;;;5071441;28;19933;-73
2021/03/14 02:19:58;;;;;;;;;;;9.70;89.70;;;;;;5075704;28;19943;-73
2021/03/14 02:22:25;;;;;;;;;;;9.70;89.50;;;;;;5076097;28;19924;-73
2021/03/14 02:24:54;;;;;;;;;;;9.80;89.40;;;;;;5075743;28;19929;-73
2021/03/14 02:27:21;;;;;;;;;;;9.90;89.20;;;;;;5075964;28;19932;-73
2021/03/14 02:29:48;;;;;;;;;;;9.90;89.80;;;;;;5075502;28;20381;-73
2021/03/14 02:32:15;;;;;;;;;;;10.00;88.00;;;;;;5076065;28;19973;-73
2021/03/14 02:34:44;;;;;;;;;;;10.00;88.00;;;;;;5075179;28;19935;-73
2021/03/14 02:37:11;;;;;;;;;;;10.10;88.50;;;;;;5074734;28;20270;-73
2021/03/14 02:39:37;;;;;;;;;;;10.10;89.80;;;;;;5075294;28;19937;-70
2021/03/14 02:42:06;;;;;;;;;;;10.00;89.90;;;;;;5075752;28;20400;-71
2021/03/14 02:44:34;;;;;;;;;;;10.10;90.20;;;;;;5075724;28;19932;-73
2021/03/14 02:47:00;;;;;;;;;;;10.20;90.70;;;;;;5075243;28;19924;-71
2021/03/14 02:49:27;;;;;;;;;;;10.20;90.70;;;;;;5075529;28;19924;-72
2021/03/14 02:51:54;;;;;;;;;;;10.20;91.20;;;;;;5069947;28;19966;-72
2021/03/14 02:54:20;;;;;;;;;;;10.00;91.60;;;;;;5058671;28;19925;-72
2021/03/14 02:56:47;;;;;;;;;;;10.00;91.60;;;;;;5074314;28;20362;-73
2021/03/14 02:59:14;;;;;;;;;;;10.00;91.80;;;;;;5075453;28;20316;-73
2021/03/14 03:01:44;;;;;;;;;;;10.00;91.80;;;;;;5061780;28;20275;-74
2021/03/14 03:04:11;;;;;;;;;;;9.90;92.80;;;;;;5075233;28;19938;-73
2021/03/14 03:06:37;;;;;;;;;;;9.90;93.10;;;;;;5075114;28;19924;-71
2021/03/14 03:09:04;;;;;;;;;;;9.90;93.10;;;;;;5074980;28;19924;-73
2021/03/14 03:11:31;;;;;;;;;;;9.90;93.30;;;;;;5067272;28;19999;-73
2021/03/14 03:13:57;;;;;;;;;;;9.80;93.40;;;;;;5074898;28;19925;-73
2021/03/14 03:16:24;;;;;;;;;;;9.80;93.80;;;;;;5075203;28;19993;-73
2021/03/14 03:18:51;;;;;;;;;;;9.70;94.40;;;;;;5074487;28;19928;-73
2021/03/14 03:21:19;;;;;;;;;;;9.70;95.00;;;;;;5075254;28;20325;-73
2021/03/14 03:23:46;;;;;;;;;;;9.60;94.90;;;;;;5063150;28;19935;-73
2021/03/14 03:26:14;;;;;;;;;;;9.50;95.30;;;;;;5074277;28;19924;-72
2021/03/14 03:28:40;;;;;;;;;;;9.50;95.30;;;;;;5074346;28;19928;-72
2021/03/14 03:31:06;;;;;;;;;;;9.50;95.60;;;;;;5086509;28;20993;-74
2021/03/14 03:33:32;;;;;;;;;;;9.40;96.20;;;;;;5095042;28;19924;-73
2021/03/14 03:35:59;;;;;;;;;;;9.50;96.30;;;;;;5094481;28;20376;-73
2021/03/14 03:38:26;;;;;;;;;;;9.50;96.20;;;;;;5094952;28;19932;-73
2021/03/14 03:40:54;;;;;;;;;;;9.50;96.60;;;;;;5094256;28;19938;-72
2021/03/14 03:43:23;;;;;;;;;;;9.40;96.20;;;;;;5095070;28;19951;-72
2021/03/14 03:45:50;;;;;;;;;;;9.50;96.50;;;;;;5094452;28;19924;-72
2021/03/14 03:48:20;;;;;;;;;;;9.50;96.50;;;;;;5094699;28;19924;-72
2021/03/14 03:50:49;;;;;;;;;;;9.40;96.80;;;;;;5092772;28;19938;-73
2021/03/14 03:53:17;;;;;;;;;;;9.50;97.00;;;;;;5062960;28;19929;-73
2021/03/14 03:55:43;;;;;;;;;;;9.50;96.80;;;;;;5064904;28;19937;-74
2021/03/14 03:58:10;;;;;;;;;;;9.50;96.90;;;;;;5074189;28;19924;-73
2021/03/14 04:00:37;;;;;;;;;;;9.40;96.90;;;;;;5074030;28;19924;-72
2021/03/14 04:03:04;;;;;;;;;;;9.40;97.40;;;;;;5072295;28;19935;-73
2021/03/14 04:05:30;;;;;;;;;;;9.50;97.20;;;;;;5074220;28;20007;-73
2021/03/14 04:07:57;;;;;;;;;;;9.40;96.90;;;;;;5073481;28;20398;-73
2021/03/14 04:10:24;;;;;;;;;;;9.40;97.00;;;;;;5074321;28;20285;-73
2021/03/14 04:12:51;;;;;;;;;;;9.30;97.30;;;;;;5073536;28;19928;-73
2021/03/14 04:15:19;;;;;;;;;;;9.30;97.20;;;;;;5074022;28;19924;-73
2021/03/14 04:17:46;;;;;;;;;;;9.30;97.50;;;;;;5073679;28;19928;-73
2021/03/14 04:20:15;;;;;;;;;;;9.20;97.60;;;;;;5073542;28;20228;-72
2021/03/14 04:22:43;;;;;;;;;;;9.20;97.50;;;;;;5070334;28;19925;-73
2021/03/14 04:25:11;;;;;;;;;;;9.10;97.80;;;;;;5065395;28;19953;-73
2021/03/14 04:27:38;;;;;;;;;;;9.10;98.10;;;;;;5073615;28;19931;-73
2021/03/14 04:30:05;;;;;;;;;;;9.10;98.20;;;;;;5073106;28;19950;-73
2021/03/14 04:32:32;;;;;;;;;;;9.20;98.30;;;;;;5073653;28;19934;-73
2021/03/14 04:34:58;;;;;;;;;;;9.20;98.30;;;;;;5073106;28;19925;-73
2021/03/14 04:37:25;;;;;;;;;;;9.20;98.10;;;;;;5073234;28;20165;-73
2021/03/14 04:39:52;;;;;;;;;;;9.20;98.10;;;;;;5072973;28;19937;-74
2021/03/14 04:42:18;;;;;;;;;;;9.20;97.70;;;;;;5073277;28;20014;-74
2021/03/14 04:44:45;;;;;;;;;;;9.20;98.10;;;;;;5073515;28;20351;-73
2021/03/14 04:47:12;;;;;;;;;;;9.10;98.10;;;;;;5093349;28;19924;-73
2021/03/14 04:49:38;;;;;;;;;;;9.00;98.40;;;;;;5093269;28;19936;-73
2021/03/14 04:52:06;;;;;;;;;;;9.00;98.40;;;;;;5093186;28;20363;-73
2021/03/14 04:54:32;;;;;;;;;;;9.00;98.50;;;;;;5075416;28;19977;-73
2021/03/14 04:56:59;;;;;;;;;;;9.10;98.50;;;;;;5092822;28;19924;-73
2021/03/14 04:59:26;;;;;;;;;;;9.10;98.00;;;;;;5093434;28;19932;-73
2021/03/14 05:01:54;;;;;;;;;;;9.20;97.90;;;;;;5092684;28;19924;-74
2021/03/14 05:04:21;;;;;;;;;;;9.10;98.10;;;;;;5093389;28;19924;-74
2021/03/14 05:06:48;;;;;;;;;;;9.10;98.20;;;;;;5093182;28;20016;-73
2021/03/14 05:09:17;;;;;;;;;;;9.10;98.00;;;;;;5092908;28;19924;-74
2021/03/14 05:11:45;;;;;;;;;;;9.10;98.00;;;;;;5093316;28;20282;-73
2021/03/14 05:14:12;;;;;;;;;;;9.00;98.20;;;;;;5092720;28;20023;-73
2021/03/14 05:16:39;;;;;;;;;;;9.00;98.20;;;;;;5093160;28;19950;-74
2021/03/14 05:19:07;;;;;;;;;;;9.00;97.80;;;;;;5091553;28;20022;-74
2021/03/14 05:21:33;;;;;;;;;;;9.00;98.10;;;;;;5093287;28;19924;-73
2021/03/14 05:24:00;;;;;;;;;;;9.00;98.10;;;;;;5080379;28;19938;-74
2021/03/14 05:26:26;;;;;;;;;;;8.90;97.90;;;;;;5093128;28;19924;-74
2021/03/14 05:28:55;;;;;;;;;;;8.90;98.20;;;;;;5092539;28;19928;-74
2021/03/14 05:31:31;;;;;;;;;;;8.90;98.20;;;;;;5093078;28;19931;-72
2021/03/14 05:33:59;;;;;;;;;;;8.80;98.50;;;;;;5092555;28;19924;-74
2021/03/14 05:36:26;;;;;;;;;;;8.90;98.70;;;;;;5091845;28;19930;-74
2021/03/14 05:38:54;;;;;;;;;;;8.90;99.00;;;;;;5091851;28;19928;-76
2021/03/14 05:41:20;;;;;;;;;;;8.90;98.40;;;;;;5092798;28;19934;-75
2021/03/14 05:43:47;;;;;;;;;;;9.00;98.40;;;;;;5092957;28;19938;-76
2021/03/14 05:46:13;;;;;;;;;;;9.00;98.10;;;;;;5092172;28;20262;-76
2021/03/14 05:48:41;;;;;;;;;;;9.00;98.30;;;;;;5092617;28;19924;-76
2021/03/14 05:51:07;;;;;;;;;;;9.00;98.30;;;;;;5087692;28;19929;-76
2021/03/14 05:53:38;;;;;;;;;;;9.00;98.40;;;;;;5080466;28;19986;-74
2021/03/14 05:56:05;;;;;;;;;;;9.00;98.70;;;;;;5085491;28;20262;-75
2021/03/14 05:58:32;;;;;;;;;;;9.00;98.60;;;;;;5085081;28;19924;-75
2021/03/14 06:00:59;;;;;;;;;;;9.00;98.50;;;;;;5092118;28;19931;-76
2021/03/14 06:03:26;;;;;;;;;;;9.00;98.90;;;;;;5092529;28;19947;-75
2021/03/14 06:05:53;;;;;;;;;;;9.00;98.90;;;;;;5092623;28;19934;-75
2021/03/14 06:08:19;;;;;;;;;;;9.00;99.00;;;;;;5088842;28;20608;-76
2021/03/14 06:10:46;;;;;;;;;;;9.00;98.80;;;;;;5092015;28;19928;-75
2021/03/14 06:13:13;;;;;;;;;;;9.00;98.30;;;;;;5090679;28;19951;-75
2021/03/14 06:15:39;;;;;;;;;;;9.00;98.20;;;;;;5090439;28;19934;-75
2021/03/14 06:18:05;;;;;;;;;;;9.10;98.10;;;;;;5091764;28;19928;-74
2021/03/14 06:20:37;;;;;;;;;;;9.10;98.10;;;;;;5092405;28;19934;-74
2021/03/14 06:23:07;;;;;;;;;;;9.00;98.00;;;;;;5091843;28;20266;-74
2021/03/14 06:25:33;;;;;;;;;;;9.00;98.30;;;;;;5092487;28;19946;-74
2021/03/14 06:28:00;;;;;;;;;;;9.00;98.00;;;;;;5091801;28;19924;-75
2021/03/14 06:30:28;;;;;;;;;;;9.00;98.10;;;;;;5092034;28;19924;-74
2021/03/14 06:33:01;;;;;;;;;;;9.00;98.20;;;;;;5092449;28;20359;-75
2021/03/14 06:35:36;;;;;;;;;;;8.90;98.50;;;;;;5087928;28;19971;-74
2021/03/14 06:38:16;;;;;;;;;;;8.90;98.60;;;;;;5091066;28;19938;-74
2021/03/14 06:40:42;;;;;;;;;;;8.90;98.60;;;;;;5092464;28;19946;-74
2021/03/14 06:43:11;;;;;;;;;;;8.90;98.60;;;;;;5092331;28;19954;-74
2021/03/14 06:45:39;;;;;;;;;;;8.90;98.20;;;;;;5091967;28;19932;-74
2021/03/14 06:48:06;;;;;;;;;;;8.90;98.60;;;;;;5091748;28;19924;-74
2021/03/14 06:50:37;;;;;;;;;;;8.90;98.70;;;;;;5092455;28;19924;-74
2021/03/14 06:53:11;;;;;;;;;;;8.90;98.60;;;;;;5075876;28;20362;-74
2021/03/14 06:55:38;;;;;;;;;;;8.90;98.40;;;;;;5092196;28;20262;-74
2021/03/14 06:58:21;;;;;;;;;;;9.00;98.80;;;;;;5091462;28;21360;-74
2021/03/14 07:01:02;;;;;;;;;;;9.00;98.50;;;;;;5091821;28;20341;-75
2021/03/14 07:03:28;;;;;;;;;;;9.00;98.40;;;;;;5089577;28;20022;-74
2021/03/14 07:06:12;;;;;;;;;;;9.10;98.30;;;;;;5095263;28;20006;-74
2021/03/14 07:08:39;;;;;;;;;;;9.10;98.50;;;;;;5095475;28;20019;-74
2021/03/14 07:11:05;;;;;;;;;;;9.20;98.00;;;;;;5095167;28;19938;-74
2021/03/14 07:13:32;;;;;;;;;;;9.20;98.30;;;;;;5095738;28;19930;-74
2021/03/14 07:15:59;;;;;;;;;;;9.20;98.10;;;;;;5094810;28;19934;-72
2021/03/14 07:18:26;;;;;;;;;;;9.20;98.20;;;;;;5095744;28;19924;-73
2021/03/14 07:20:52;;;;;;;;;;;9.20;97.90;;;;;;5095019;28;19928;-74
2021/03/14 07:23:30;;;;;;;;;;;9.20;97.50;;;;;;5090742;28;20422;-74
2021/03/14 07:25:56;;;;;;;;;;;9.20;97.60;;;;;;5094872;28;19925;-73
2021/03/14 07:28:23;;;;;;;;;;;9.20;97.80;;;;;;5095359;28;19934;-73
2021/03/14 07:30:51;;;;;;;;;;;9.20;97.70;;;;;;5094934;28;19935;-73
2021/03/14 07:33:17;;;;;;;;;;;9.10;98.40;;;;;;5095235;28;20003;-73
2021/03/14 07:35:44;;;;;;;;;;;9.10;98.20;;;;;;5088846;28;19924;-74
2021/03/14 07:38:10;;;;;;;;;;;9.10;97.80;;;;;;5094679;28;19924;-74
2021/03/14 07:40:37;;;;;;;;;;;9.10;97.60;;;;;;5095228;28;19924;-75
2021/03/14 07:43:03;;;;;;;;;;;9.10;97.50;;;;;;5094447;28;19924;-74
2021/03/14 07:45:31;;;;;;;;;;;9.10;97.60;;;;;;5095067;28;19952;-74
2021/03/14 07:47:59;;;;;;;;;;;9.10;97.60;;;;;;5094466;28;19946;-74
2021/03/14 07:50:27;;;;;;;;;;;9.10;97.50;;;;;;5094752;28;19938;-74
2021/03/14 07:52:55;;;;;;;;;;;9.10;97.50;;;;;;5078171;28;19950;-74
2021/03/14 07:55:22;;;;;;;;;;;9.20;97.80;;;;;;5082913;28;19928;-74
2021/03/14 07:57:50;;;;;;;;;;;9.20;97.60;;;;;;5094539;28;19931;-74
2021/03/14 08:00:27;;;;;;;;;;;9.30;97.70;;;;;;5094540;28;20270;-73
2021/03/14 08:02:54;;;;;;;;;;;9.30;97.60;;;;;;5094237;28;19973;-73
2021/03/14 08:05:44;;;;;;;;;;;9.30;97.90;;;;;;5094558;28;19924;-73
2021/03/14 08:08:10;;;;;;;;;;;9.40;97.60;;;;;;5087480;28;19924;-73
2021/03/14 08:10:39;;;;;;;;;;;9.40;97.50;;;;;;5094454;28;20426;-74
2021/03/14 08:13:06;;;;;;;;;;;9.40;97.40;;;;;;5093707;28;20018;-75
2021/03/14 08:15:33;;;;;;;;;;;9.50;97.40;;;;;;5082490;28;19924;-73
2021/03/14 08:18:01;;;;;;;;;;;9.50;97.30;;;;;;5093887;28;19934;-73
2021/03/14 08:20:38;;;;;;;;;;;9.50;97.20;;;;;;5094693;28;19924;-72
2021/03/14 08:23:05;;;;;;;;;;;9.60;97.40;;;;;;5089087;28;19950;-73
2021/03/14 08:25:36;;;;;;;;;;;9.60;97.30;;;;;;5094277;28;19928;-73
2021/03/14 08:28:22;;;;;;;;;;;9.60;97.10;;;;;;5093681;28;19943;-73
2021/03/14 08:30:49;;;;;;;;;;;9.70;96.90;;;;;;5093837;28;20366;-73
2021/03/14 08:33:26;;;;;;;;;;;9.70;97.10;;;;;;5093724;28;19988;-73
2021/03/14 08:35:54;;;;;;;;;;;9.70;96.90;;;;;;5086616;28;19924;-74
2021/03/14 08:38:24;;;;;;;;;;;9.80;96.90;;;;;;5093699;28;20024;-74
2021/03/14 08:40:50;;;;;;;;;;;9.80;97.00;;;;;;5093824;28;20353;-74
2021/03/14 08:43:40;;;;;;;;;;;9.80;97.10;;;;;;5093788;28;20274;-73
2021/03/14 08:46:06;;;;;;;;;;;9.80;96.80;;;;;;5093281;28;19924;-74
2021/03/14 08:48:32;;;;;;;;;;;9.80;97.40;;;;;;5093904;28;19923;-74
2021/03/14 08:51:00;;;;;;;;;;;9.80;97.60;;;;;;5090561;28;19935;-74
2021/03/14 08:53:27;;;;;;;;;;;9.70;97.90;;;;;;5075400;28;20010;-74
2021/03/14 08:55:53;;;;;;;;;;;9.70;98.30;;;;;;5085611;28;19924;-74
2021/03/14 08:58:20;;;;;;;;;;;9.70;98.60;;;;;;5092792;28;19934;-74
2021/03/14 09:01:03;;;;;;;;;;;9.60;99.10;;;;;;5093699;28;19924;-73
2021/03/14 09:03:30;;;;;;;;;;;9.50;99.10;;;;;;5087672;28;19955;-74
2021/03/14 09:06:23;;;;;;;;;;;9.40;98.80;;;;;;5093334;28;20319;-74
2021/03/14 09:08:53;;;;;;;;;;;9.40;99.00;;;;;;5093186;28;20013;-74
2021/03/14 09:11:34;;;;;;;;;;;9.30;99.30;;;;;;5093677;28;20339;-75
2021/03/14 09:14:00;;;;;;;;;;;9.30;99.60;;;;;;5080849;28;20089;-73
2021/03/14 09:16:41;;;;;;;;;;;9.40;99.50;;;;;;5093159;28;20069;-73
2021/03/14 09:19:07;;;;;;;;;;;9.50;99.20;;;;;;5092901;28;19928;-73
2021/03/14 09:21:47;;;;;;;;;;;9.50;99.30;;;;;;5093317;28;19936;-73
2021/03/14 09:24:23;;;;;;;;;;;9.50;98.80;;;;;;5087865;28;20777;-73
2021/03/14 09:26:53;;;;;;;;;;;9.60;98.70;;;;;;5092554;28;20315;-74
2021/03/14 09:29:31;;;;;;;;;;;9.60;98.60;;;;;;5093227;28;19932;-73
2021/03/14 09:31:58;;;;;;;;;;;9.60;98.20;;;;;;5080605;28;19928;-73
2021/03/14 09:34:24;;;;;;;;;;;9.60;98.20;;;;;;5092985;28;19935;-73
2021/03/14 09:36:51;;;;;;;;;;;9.60;97.80;;;;;;5092338;28;20468;-73
2021/03/14 09:39:21;;;;;;;;;;;9.50;97.80;;;;;;5092557;28;19923;-73
2021/03/14 09:41:47;;;;;;;;;;;9.40;97.80;;;;;;5092829;28;19928;-74
2021/03/14 09:44:15;;;;;;;;;;;9.40;98.20;;;;;;5091581;28;22220;-73
2021/03/14 09:46:51;;;;;;;;;;;9.40;98.00;;;;;;5092676;28;20360;-73
2021/03/14 09:49:18;;;;;;;;;;;9.40;98.00;;;;;;5092601;28;19932;-73
2021/03/14 09:51:49;;;;;;;;;;;9.40;98.00;;;;;;5092703;28;19924;-73
2021/03/14 09:54:16;;;;;;;;;;;9.40;98.30;;;;;;5075594;28;19924;-73
2021/03/14 09:56:45;;;;;;;;;;;9.50;98.30;;;;;;5091472;28;19924;-72
2021/03/14 09:59:12;;;;;;;;;;;9.50;98.40;;;;;;5092262;28;20270;-73
2021/03/14 10:01:38;;;;;;;;;;;9.50;98.30;;;;;;5092761;28;19924;-73
2021/03/14 10:04:04;;;;;;;;;;;9.60;98.30;;;;;;5092214;28;19984;-73
2021/03/14 10:06:37;;;;;;;;;;;9.60;98.30;;;;;;5092573;28;20269;-73
2021/03/14 10:09:04;;;;;;;;;;;9.70;98.50;;;;;;5078977;28;19935;-71
2021/03/14 10:11:31;;;;;;;;;;;9.70;98.60;;;;;;5092807;28;20373;-74
2021/03/14 10:13:57;;;;;;;;;;;9.70;98.80;;;;;;5092162;28;19924;-74
2021/03/14 10:16:25;;;;;;;;;;;9.80;98.50;;;;;;5092296;28;19924;-73
2021/03/14 10:18:51;;;;;;;;;;;9.80;98.60;;;;;;5092596;28;19928;-73
2021/03/14 10:21:18;;;;;;;;;;;9.80;98.60;;;;;;5091843;28;20361;-73
2021/03/14 10:23:45;;;;;;;;;;;9.80;98.50;;;;;;5087653;28;19938;-73
2021/03/14 10:26:12;;;;;;;;;;;9.90;98.60;;;;;;5091885;28;20015;-72
2021/03/14 10:28:40;;;;;;;;;;;9.90;98.20;;;;;;5092405;28;19924;-72
2021/03/14 10:31:07;;;;;;;;;;;10.00;97.50;;;;;;5091870;28;19924;-73
2021/03/14 10:33:34;;;;;;;;;;;10.00;97.50;;;;;;5092599;28;20350;-74
2021/03/14 10:36:02;;;;;;;;;;;10.10;97.40;;;;;;5085222;28;20270;-73
2021/03/14 10:38:28;;;;;;;;;;;10.10;97.20;;;;;;5096476;28;20357;-74
2021/03/14 10:41:08;;;;;;;;;;;10.00;96.80;;;;;;5096149;28;20005;-73
2021/03/14 10:43:34;;;;;;;;;;;10.10;97.20;;;;;;5096799;28;20380;-73
2021/03/14 10:46:01;;;;;;;;;;;10.00;97.50;;;;;;5095452;28;19924;-72
2021/03/14 10:48:28;;;;;;;;;;;10.10;97.60;;;;;;5092032;28;20034;-77
2021/03/14 10:51:01;;;;;;;;;;;10.10;97.40;;;;;;5091262;28;19928;-72
2021/03/14 10:53:28;;;;;;;;;;;10.10;97.30;;;;;;5085853;28;19933;-78
2021/03/14 10:56:01;;;;;;;;;;;10.20;97.00;;;;;;5087688;28;20066;-73
2021/03/14 10:58:34;;;;;;;;;;;10.20;96.70;;;;;;5095940;28;19934;-73
2021/03/14 11:01:03;;;;;;;;;;;10.10;96.60;;;;;;5095636;28;20370;-73
2021/03/14 11:03:32;;;;;;;;;;;10.20;97.00;;;;;;5095046;28;19924;-73
2021/03/14 11:06:08;;;;;;;;;;;10.30;96.80;;;;;;5095385;28;19924;-74
2021/03/14 11:09:03;;;;;;;;;;;10.30;96.50;;;;;;5095715;28;19924;-73
2021/03/14 11:11:37;;;;;;;;;;;10.40;96.40;;;;;;5060410;28;19940;-73
2021/03/14 11:14:18;;;;;;;;;;;10.40;96.30;;;;;;5095764;28;19924;-73
2021/03/14 11:16:45;;;;;;;;;;;10.50;96.10;;;;;;5094165;28;20007;-73
2021/03/14 11:19:12;;;;;;;;;;;10.50;95.90;;;;;;5095513;28;19947;-73
2021/03/14 11:21:38;;;;;;;;;;;10.40;95.60;;;;;;5087033;28;19924;-73
2021/03/14 11:24:04;;;;;;;;;;;10.40;95.80;;;;;;5094642;28;19971;-74
2021/03/14 11:26:31;;;;;;;;;;;10.40;95.70;;;;;;5093954;28;19935;-73
2021/03/14 11:28:57;;;;;;;;;;;10.40;96.10;;;;;;5094504;28;20019;-74
2021/03/14 11:31:23;;;;;;;;;;;10.40;96.30;;;;;;5094048;28;19932;-74
2021/03/14 11:33:50;;;;;;;;;;;10.40;96.10;;;;;;5094688;28;19924;-73
2021/03/14 11:36:17;;;;;;;;;;;10.50;95.90;;;;;;5094988;28;19932;-72
2021/03/14 11:38:43;;;;;;;;;;;10.50;95.70;;;;;;5094605;28;20042;-73
2021/03/14 11:41:09;;;;;;;;;;;10.60;95.70;;;;;;5085241;28;19924;-73
2021/03/14 11:43:36;;;;;;;;;;;10.60;95.20;;;;;;5090491;28;19930;-74
2021/03/14 11:46:02;;;;;;;;;;;10.70;95.30;;;;;;5095193;28;19993;-73
2021/03/14 11:48:28;;;;;;;;;;;10.80;95.00;;;;;;5094040;28;19924;-74
2021/03/14 11:50:56;;;;;;;;;;;10.80;94.90;;;;;;5092690;28;19977;-73
2021/03/14 11:53:22;;;;;;;;;;;10.90;94.90;;;;;;5085992;28;19931;-74
2021/03/14 11:55:48;;;;;;;;;;;10.90;94.80;;;;;;5094530;28;19924;-73
2021/03/14 11:58:15;;;;;;;;;;;11.10;94.50;;;;;;5094663;28;19935;-74
2021/03/14 12:00:41;;;;;;;;;;;11.00;94.30;;;;;;5094377;28;19931;-73
2021/03/14 12:03:07;;;;;;;;;;;11.10;94.00;;;;;;5094714;28;20400;-73
2021/03/14 12:05:34;;;;;;;;;;;11.20;93.50;;;;;;5094042;28;19924;-71
2021/03/14 12:08:01;;;;;;;;;;;11.20;93.60;;;;;;5094521;28;19924;-71
2021/03/14 12:10:27;;;;;;;;;;;11.30;93.40;;;;;;5094275;28;19924;-71
2021/03/14 12:12:53;;;;;;;;;;;11.30;93.30;;;;;;5094482;28;20309;-72
2021/03/14 12:15:20;;;;;;;;;;;11.40;93.10;;;;;;5088399;28;19928;-73
2021/03/14 12:17:46;;;;;;;;;;;11.40;92.30;;;;;;5091369;28;20250;-71
2021/03/14 12:20:13;;;;;;;;;;;11.40;92.00;;;;;;5094575;28;19959;-72
2021/03/14 12:22:39;;;;;;;;;;;11.40;91.90;;;;;;5093736;28;20363;-72
2021/03/14 12:25:07;;;;;;;;;;;11.40;92.00;;;;;;5093404;28;19924;-72
2021/03/14 12:27:33;;;;;;;;;;;11.40;91.90;;;;;;5093591;28;19980;-72
2021/03/14 12:29:59;;;;;;;;;;;11.40;91.20;;;;;;5094255;28;19985;-73
2021/03/14 12:32:26;;;;;;;;;;;11.30;90.90;;;;;;5094196;28;19981;-72
2021/03/14 12:34:52;;;;;;;;;;;11.20;91.00;;;;;;5093913;28;20784;-72
2021/03/14 12:37:18;;;;;;;;;;;11.20;92.40;;;;;;5093934;28;19924;-72
2021/03/14 12:39:45;;;;;;;;;;;11.10;93.30;;;;;;5093630;28;20273;-72
2021/03/14 12:42:12;;;;;;;;;;;10.90;93.70;;;;;;5093949;28;19924;-72
2021/03/14 12:44:38;;;;;;;;;;;10.80;93.90;;;;;;5093456;28;20355;-72
2021/03/14 12:47:04;;;;;;;;;;;10.70;94.30;;;;;;5093804;28;20253;-73
2021/03/14 12:49:31;;;;;;;;;;;10.60;95.00;;;;;;5093360;28;19935;-72
2021/03/14 12:51:57;;;;;;;;;;;10.50;94.80;;;;;;5087138;28;19924;-73
2021/03/14 12:54:25;;;;;;;;;;;10.60;95.20;;;;;;5088451;28;20347;-73
2021/03/14 12:56:51;;;;;;;;;;;10.70;95.20;;;;;;5092935;28;19936;-73
2021/03/14 12:59:19;;;;;;;;;;;10.70;94.70;;;;;;5092578;28;19932;-73
2021/03/14 13:01:45;;;;;;;;;;;10.70;94.80;;;;;;5093018;28;20380;-72
2021/03/14 13:04:11;;;;;;;;;;;10.60;95.00;;;;;;5093811;28;19935;-72
2021/03/14 13:06:37;;;;;;;;;;;10.60;95.30;;;;;;5092563;28;19924;-73
2021/03/14 13:09:04;;;;;;;;;;;10.50;95.20;;;;;;5093914;28;19932;-73
2021/03/14 13:11:30;;;;;;;;;;;10.50;94.90;;;;;;5093013;28;19932;-73
2021/03/14 13:13:56;;;;;;;;;;;10.60;94.70;;;;;;5093534;28;19934;-73
2021/03/14 13:16:23;;;;;;;;;;;10.60;95.10;;;;;;5093377;28;20265;-72
2021/03/14 13:18:49;;;;;;;;;;;10.50;95.00;;;;;;5085624;28;20286;-72
2021/03/14 13:21:16;;;;;;;;;;;10.50;95.20;;;;;;5093359;28;20257;-73
2021/03/14 13:23:42;;;;;;;;;;;10.50;95.60;;;;;;5092684;28;19924;-73
2021/03/14 13:26:08;;;;;;;;;;;10.50;95.70;;;;;;5092942;28;19928;-73
2021/03/14 13:28:35;;;;;;;;;;;10.50;95.60;;;;;;5092724;28;19974;-73
2021/03/14 13:31:01;;;;;;;;;;;10.50;95.60;;;;;;5093078;28;19928;-73
2021/03/14 13:33:28;;;;;;;;;;;10.50;95.90;;;;;;5092974;28;19924;-73
2021/03/14 13:35:55;;;;;;;;;;;10.60;96.00;;;;;;5092694;28;20023;-72
2021/03/14 13:38:22;;;;;;;;;;;10.60;95.90;;;;;;5092909;28;19928;-73
2021/03/14 13:40:49;;;;;;;;;;;10.70;95.50;;;;;;5092468;28;19934;-72
2021/03/14 13:43:16;;;;;;;;;;;10.70;95.60;;;;;;5093112;28;19929;-73
2021/03/14 13:45:42;;;;;;;;;;;10.70;95.00;;;;;;5092637;28;19924;-72
2021/03/14 13:48:09;;;;;;;;;;;10.80;95.00;;;;;;5092934;28;19931;-72
2021/03/14 13:50:36;;;;;;;;;;;10.80;94.90;;;;;;5092492;28;19981;-72
2021/03/14 13:53:05;;;;;;;;;;;10.80;94.60;;;;;;5086566;28;19934;-73
2021/03/14 13:55:31;;;;;;;;;;;10.90;94.40;;;;;;5084565;28;19977;-72
2021/03/14 13:57:57;;;;;;;;;;;11.00;94.20;;;;;;5092167;28;19946;-72
2021/03/14 14:00:24;;;;;;;;;;;11.00;93.80;;;;;;5092902;28;20052;-73
2021/03/14 14:02:51;;;;;;;;;;;11.00;93.90;;;;;;5092171;28;19977;-72
2021/03/14 14:05:17;;;;;;;;;;;11.10;94.00;;;;;;5092603;28;19924;-72
2021/03/14 14:07:44;;;;;;;;;;;11.10;93.80;;;;;;5092022;28;19924;-72
2021/03/14 14:10:12;;;;;;;;;;;11.10;93.80;;;;;;5092763;28;20011;-73
2021/03/14 14:12:38;;;;;;;;;;;11.10;93.80;;;;;;5095904;28;20015;-73
2021/03/14 14:15:05;;;;;;;;;;;11.20;94.00;;;;;;5097001;28;19924;-72
2021/03/14 14:17:31;;;;;;;;;;;11.20;94.10;;;;;;5096588;28;20293;-71
2021/03/14 14:19:58;;;;;;;;;;;11.20;94.10;;;;;;5082838;28;19934;-73
2021/03/14 14:22:24;;;;;;;;;;;11.20;94.20;;;;;;5096630;28;20468;-73
2021/03/14 14:24:51;;;;;;;;;;;11.20;94.20;;;;;;5096037;28;19924;-72
2021/03/14 14:27:17;;;;;;;;;;;11.30;94.50;;;;;;5083158;28;19924;-73